sensor_id;sensor_type;location;lat;lon;timestamp;pressure;altitude;pressure_sealevel;temperature;humidity
63808;BME280;49961;43.970;22.868;2023-02-02T00:00:29;101556.66;;;6.22;100.00
63808;BME280;49961;43.970;22.868;2023-02-02T00:01:30;101552.69;;;6.19;100.00
63808;BME280;49961;43.970;22.868;2023-02-02T00:02:31;101453.09;;;5.60;100.00
63808;BME280;49961;43.970;22.868;2023-02-02T00:03:31;101435.34;;;5.50;100.00
63808;BME280;49961;43.970;22.868;2023-02-02T00:04:34;101556.28;;;6.23;100.00
63808;BME280;49961;43.970;22.868;2023-02-02T00:05:35;101480.75;;;5.77;100.00
63808;BME280;49961;43.970;22.868;2023-02-02T00:06:35;101538.06;;;6.08;100.00
63808;BME280;49961;43.970;22.868;2023-02-02T00:07:36;101481.88;;;5.73;100.00
63808;BME280;49961;43.970;22.868;2023-02-02T00:08:36;101558.94;;;6.13;100.00
63808;BME280;49961;43.970;22.868;2023-02-02T00:09:38;101555.00;;;6.14;100.00
63808;BME280;49961;43.970;22.868;2023-02-02T00:10:38;101551.50;;;6.17;100.00
63808;BME280;49961;43.970;22.868;2023-02-02T00:11:40;101557.72;;;6.10;100.00
63808;BME280;49961;43.970;22.868;2023-02-02T00:12:41;101547.09;;;6.09;100.00
63808;BME280;49961;43.970;22.868;2023-02-02T00:13:41;101501.31;;;5.87;100.00
63808;BME280;49961;43.970;22.868;2023-02-02T00:14:42;101542.50;;;6.20;100.00
63808;BME280;49961;43.970;22.868;2023-02-02T00:15:42;101543.59;;;6.12;100.00
63808;BME280;49961;43.970;22.868;2023-02-02T00:16:45;101495.28;;;5.78;100.00
63808;BME280;49961;43.970;22.868;2023-02-02T00:17:46;101524.28;;;6.05;100.00
63808;BME280;49961;43.970;22.868;2023-02-02T00:18:47;101546.75;;;6.14;100.00
63808;BME280;49961;43.970;22.868;2023-02-02T00:19:48;101540.81;;;6.08;100.00
63808;BME280;49961;43.970;22.868;2023-02-02T00:20:48;101437.66;;;5.48;100.00
63808;BME280;49961;43.970;22.868;2023-02-02T00:21:49;101541.63;;;6.12;100.00
63808;BME280;49961;43.970;22.868;2023-02-02T00:22:49;101539.25;;;6.11;100.00
63808;BME280;49961;43.970;22.868;2023-02-02T00:23:50;101542.00;;;6.07;100.00
63808;BME280;49961;43.970;22.868;2023-02-02T00:24:50;101543.47;;;6.01;100.00
63808;BME280;49961;43.970;22.868;2023-02-02T00:25:51;101542.72;;;6.01;100.00
63808;BME280;49961;43.970;22.868;2023-02-02T00:26:54;101502.34;;;5.75;100.00
63808;BME280;49961;43.970;22.868;2023-02-02T00:27:55;101514.72;;;5.92;100.00
63808;BME280;49961;43.970;22.868;2023-02-02T00:28:56;101535.19;;;5.98;100.00
63808;BME280;49961;43.970;22.868;2023-02-02T00:29:56;101404.41;;;5.20;100.00
63808;BME280;49961;43.970;22.868;2023-02-02T00:30:57;101501.31;;;5.87;100.00
63808;BME280;49961;43.970;22.868;2023-02-02T00:31:57;101493.34;;;5.78;100.00
63808;BME280;49961;43.970;22.868;2023-02-02T00:32:57;101415.88;;;5.29;100.00
63808;BME280;49961;43.970;22.868;2023-02-02T00:33:58;101516.75;;;5.98;100.00
63808;BME280;49961;43.970;22.868;2023-02-02T00:34:59;101526.16;;;5.97;100.00
63808;BME280;49961;43.970;22.868;2023-02-02T00:35:59;101512.75;;;5.89;100.00
63808;BME280;49961;43.970;22.868;2023-02-02T00:37:00;101514.72;;;5.92;100.00
63808;BME280;49961;43.970;22.868;2023-02-02T00:38:00;101457.72;;;5.52;100.00
63808;BME280;49961;43.970;22.868;2023-02-02T00:39:01;101528.91;;;5.97;100.00
63808;BME280;49961;43.970;22.868;2023-02-02T00:40:01;101519.91;;;6.04;100.00
63808;BME280;49961;43.970;22.868;2023-02-02T00:41:02;101494.34;;;5.96;100.00
63808;BME280;49961;43.970;22.868;2023-02-02T00:42:02;101528.59;;;6.06;100.00
63808;BME280;49961;43.970;22.868;2023-02-02T00:43:03;101517.63;;;6.09;100.00
63808;BME280;49961;43.970;22.868;2023-02-02T00:44:03;101522.72;;;6.07;100.00
63808;BME280;49961;43.970;22.868;2023-02-02T00:45:22;101521.97;;;6.14;100.00
63808;BME280;49961;43.970;22.868;2023-02-02T00:46:24;101521.56;;;6.12;100.00
63808;BME280;49961;43.970;22.868;2023-02-02T00:47:25;101515.66;;;6.10;100.00
63808;BME280;49961;43.970;22.868;2023-02-02T00:48:25;101526.34;;;6.15;100.00
63808;BME280;49961;43.970;22.868;2023-02-02T00:49:25;101528.31;;;6.18;100.00
63808;BME280;49961;43.970;22.868;2023-02-02T00:50:26;101524.81;;;6.21;100.00
63808;BME280;49961;43.970;22.868;2023-02-02T00:51:26;101434.34;;;5.69;100.00
63808;BME280;49961;43.970;22.868;2023-02-02T00:52:27;101520.47;;;6.20;100.00
63808;BME280;49961;43.970;22.868;2023-02-02T00:53:27;101525.19;;;6.19;100.00
63808;BME280;49961;43.970;22.868;2023-02-02T00:54:28;101512.94;;;6.13;100.00
63808;BME280;49961;43.970;22.868;2023-02-02T00:55:28;101506.25;;;6.14;100.00
63808;BME280;49961;43.970;22.868;2023-02-02T00:56:29;101520.06;;;6.21;100.00
63808;BME280;49961;43.970;22.868;2023-02-02T00:57:29;101513.78;;;6.21;100.00
63808;BME280;49961;43.970;22.868;2023-02-02T00:58:30;101477.41;;;5.98;100.00
63808;BME280;49961;43.970;22.868;2023-02-02T00:59:30;101516.13;;;6.19;100.00
63808;BME280;49961;43.970;22.868;2023-02-02T01:00:31;101515.72;;;6.17;100.00
63808;BME280;49961;43.970;22.868;2023-02-02T01:01:31;101508.63;;;6.12;100.00
63808;BME280;49961;43.970;22.868;2023-02-02T01:02:33;101362.41;;;5.23;100.00
63808;BME280;49961;43.970;22.868;2023-02-02T01:03:34;101514.16;;;6.19;100.00
63808;BME280;49961;43.970;22.868;2023-02-02T01:04:34;101511.38;;;6.12;100.00
63808;BME280;49961;43.970;22.868;2023-02-02T01:05:35;101516.06;;;6.12;100.00
63808;BME280;49961;43.970;22.868;2023-02-02T01:06:35;101510.56;;;6.12;100.00
63808;BME280;49961;43.970;22.868;2023-02-02T01:07:36;101513.34;;;6.15;100.00
63808;BME280;49961;43.970;22.868;2023-02-02T01:08:37;101511.75;;;6.14;100.00
63808;BME280;49961;43.970;22.868;2023-02-02T01:09:37;101516.47;;;6.14;100.00
63808;BME280;49961;43.970;22.868;2023-02-02T01:10:37;101518.84;;;6.15;100.00
63808;BME280;49961;43.970;22.868;2023-02-02T01:11:38;101401.91;;;5.45;100.00
63808;BME280;49961;43.970;22.868;2023-02-02T01:12:39;101501.47;;;6.04;100.00
63808;BME280;49961;43.970;22.868;2023-02-02T01:13:39;101435.47;;;5.68;100.00
63808;BME280;49961;43.970;22.868;2023-02-02T01:14:40;101516.09;;;6.15;100.00
63808;BME280;49961;43.970;22.868;2023-02-02T01:15:40;101524.34;;;6.15;100.00
63808;BME280;49961;43.970;22.868;2023-02-02T01:16:41;101516.06;;;6.12;100.00
63808;BME280;49961;43.970;22.868;2023-02-02T01:17:41;101529.47;;;6.13;100.00
63808;BME280;49961;43.970;22.868;2023-02-02T01:18:42;101525.91;;;6.13;100.00
63808;BME280;49961;43.970;22.868;2023-02-02T01:19:42;101531.00;;;6.11;100.00
63808;BME280;49961;43.970;22.868;2023-02-02T01:20:43;101525.06;;;6.09;100.00
63808;BME280;49961;43.970;22.868;2023-02-02T01:21:43;101518.00;;;6.08;100.00
63808;BME280;49961;43.970;22.868;2023-02-02T01:22:44;101515.97;;;6.01;100.00
63808;BME280;49961;43.970;22.868;2023-02-02T01:23:44;101474.72;;;5.61;100.00
63808;BME280;49961;43.970;22.868;2023-02-02T01:24:45;101482.72;;;5.77;100.00
63808;BME280;49961;43.970;22.868;2023-02-02T01:25:55;101532.53;;;6.05;100.00
63808;BME280;49961;43.970;22.868;2023-02-02T01:26:56;101317.53;;;4.69;100.00
63808;BME280;49961;43.970;22.868;2023-02-02T01:27:56;101447.91;;;5.51;100.00
63808;BME280;49961;43.970;22.868;2023-02-02T01:28:56;101530.53;;;6.02;100.00
63808;BME280;49961;43.970;22.868;2023-02-02T01:29:57;101521.13;;;6.06;100.00
63808;BME280;49961;43.970;22.868;2023-02-02T01:30:57;101492.28;;;5.86;100.00
63808;BME280;49961;43.970;22.868;2023-02-02T01:31:58;101520.72;;;6.04;100.00
63808;BME280;49961;43.970;22.868;2023-02-02T01:32:58;101526.19;;;6.01;100.00
63808;BME280;49961;43.970;22.868;2023-02-02T01:33:58;101473.94;;;5.64;100.00
63808;BME280;49961;43.970;22.868;2023-02-02T01:34:59;101519.47;;;5.95;100.00
63808;BME280;49961;43.970;22.868;2023-02-02T01:36:04;101527.28;;;5.93;100.00
63808;BME280;49961;43.970;22.868;2023-02-02T01:37:05;101524.16;;;5.94;100.00
63808;BME280;49961;43.970;22.868;2023-02-02T01:38:05;101524.53;;;5.93;100.00
63808;BME280;49961;43.970;22.868;2023-02-02T01:39:05;101526.50;;;5.92;100.00
63808;BME280;49961;43.970;22.868;2023-02-02T01:40:06;101469.09;;;5.51;100.00
63808;BME280;49961;43.970;22.868;2023-02-02T01:41:12;101440.56;;;5.26;100.00
63808;BME280;49961;43.970;22.868;2023-02-02T01:42:19;101528.03;;;5.86;100.00
63808;BME280;49961;43.970;22.868;2023-02-02T01:45:52;101519.63;;;5.76;100.00
63808;BME280;49961;43.970;22.868;2023-02-02T01:46:53;101452.00;;;5.28;100.00
63808;BME280;49961;43.970;22.868;2023-02-02T01:47:57;101507.31;;;5.63;100.00
63808;BME280;49961;43.970;22.868;2023-02-02T01:50:07;101508.91;;;5.64;100.00
63808;BME280;49961;43.970;22.868;2023-02-02T01:51:13;101514.00;;;5.62;100.00
63808;BME280;49961;43.970;22.868;2023-02-02T01:52:16;101515.63;;;5.66;100.00
63808;BME280;49961;43.970;22.868;2023-02-02T01:53:18;101268.31;;;4.17;100.00
63808;BME280;49961;43.970;22.868;2023-02-02T01:54:41;101460.34;;;5.38;100.00
63808;BME280;49961;43.970;22.868;2023-02-02T01:55:45;101506.22;;;5.71;100.00
63808;BME280;49961;43.970;22.868;2023-02-02T01:56:54;101507.81;;;5.72;100.00
63808;BME280;49961;43.970;22.868;2023-02-02T01:58:00;101452.25;;;5.19;100.00
63808;BME280;49961;43.970;22.868;2023-02-02T01:59:02;101449.72;;;5.37;100.00
63808;BME280;49961;43.970;22.868;2023-02-02T02:00:07;101416.16;;;5.21;100.00
63808;BME280;49961;43.970;22.868;2023-02-02T02:01:08;101520.53;;;5.83;100.00
63808;BME280;49961;43.970;22.868;2023-02-02T02:02:10;101509.16;;;5.85;100.00
63808;BME280;49961;43.970;22.868;2023-02-02T02:03:14;101509.91;;;5.82;100.00
63808;BME280;49961;43.970;22.868;2023-02-02T02:04:16;101458.44;;;5.46;100.00
63808;BME280;49961;43.970;22.868;2023-02-02T02:05:23;101465.50;;;5.43;100.00
63808;BME280;49961;43.970;22.868;2023-02-02T02:06:25;101517.06;;;5.90;100.00
63808;BME280;49961;43.970;22.868;2023-02-02T02:07:26;101513.06;;;5.84;100.00
63808;BME280;49961;43.970;22.868;2023-02-02T02:08:29;101483.03;;;5.68;100.00
63808;BME280;49961;43.970;22.868;2023-02-02T02:09:30;101519.44;;;5.91;100.00
63808;BME280;49961;43.970;22.868;2023-02-02T02:10:30;101528.06;;;5.90;100.00
63808;BME280;49961;43.970;22.868;2023-02-02T02:11:33;101528.09;;;5.93;100.00
63808;BME280;49961;43.970;22.868;2023-02-02T02:12:33;101523.41;;;5.97;100.00
63808;BME280;49961;43.970;22.868;2023-02-02T02:13:35;101253.09;;;4.23;100.00
63808;BME280;49961;43.970;22.868;2023-02-02T02:14:56;101532.41;;;5.94;100.00
63808;BME280;49961;43.970;22.868;2023-02-02T02:16:36;101516.34;;;5.96;100.00
63808;BME280;49961;43.970;22.868;2023-02-02T02:20:47;101517.91;;;5.97;100.00
63808;BME280;49961;43.970;22.868;2023-02-02T02:22:13;101530.03;;;5.93;100.00
63808;BME280;49961;43.970;22.868;2023-02-02T02:32:39;101466.84;;;5.60;100.00
63808;BME280;49961;43.970;22.868;2023-02-02T02:36:04;101554.66;;;6.19;100.00
63808;BME280;49961;43.970;22.868;2023-02-02T02:37:13;101549.19;;;6.22;100.00
63808;BME280;49961;43.970;22.868;2023-02-02T02:39:31;101447.22;;;5.61;100.00
63808;BME280;49961;43.970;22.868;2023-02-02T02:40:39;101546.13;;;6.34;100.00
63808;BME280;49961;43.970;22.868;2023-02-02T02:41:44;101541.03;;;6.36;100.00
63808;BME280;49961;43.970;22.868;2023-02-02T02:43:14;101501.50;;;6.11;100.00
63808;BME280;49961;43.970;22.868;2023-02-02T02:44:13;101537.91;;;6.38;100.00
63808;BME280;49961;43.970;22.868;2023-02-02T02:45:16;101536.34;;;6.40;100.00
63808;BME280;49961;43.970;22.868;2023-02-02T02:46:19;101438.31;;;5.75;100.00
63808;BME280;49961;43.970;22.868;2023-02-02T02:47:20;101539.13;;;6.44;100.00
63808;BME280;49961;43.970;22.868;2023-02-02T02:48:21;101535.19;;;6.45;100.00
63808;BME280;49961;43.970;22.868;2023-02-02T02:49:21;101486.63;;;6.16;100.00
63808;BME280;49961;43.970;22.868;2023-02-02T02:50:22;101533.63;;;6.47;100.00
63808;BME280;49961;43.970;22.868;2023-02-02T02:52:44;101540.34;;;6.50;100.00
63808;BME280;49961;43.970;22.868;2023-02-02T02:53:46;101527.00;;;6.52;100.00
63808;BME280;49961;43.970;22.868;2023-02-02T02:54:49;101529.28;;;6.39;100.00
63808;BME280;49961;43.970;22.868;2023-02-02T03:01:26;101533.63;;;6.47;100.00
63808;BME280;49961;43.970;22.868;2023-02-02T03:04:11;101524.19;;;6.45;100.00
63808;BME280;49961;43.970;22.868;2023-02-02T03:08:51;101532.03;;;6.39;100.00
63808;BME280;49961;43.970;22.868;2023-02-02T03:09:56;101538.72;;;6.42;100.00
63808;BME280;49961;43.970;22.868;2023-02-02T03:10:58;101485.44;;;6.17;100.00
63808;BME280;49961;43.970;22.868;2023-02-02T03:12:01;101546.25;;;6.48;100.00
63808;BME280;49961;43.970;22.868;2023-02-02T03:13:06;101527.00;;;6.52;100.00
63808;BME280;49961;43.970;22.868;2023-02-02T03:14:07;101527.41;;;6.54;100.00
63808;BME280;49961;43.970;22.868;2023-02-02T03:15:09;101480.44;;;6.29;100.00
63808;BME280;49961;43.970;22.868;2023-02-02T03:16:10;101522.69;;;6.51;100.00
63808;BME280;49961;43.970;22.868;2023-02-02T03:17:10;101423.94;;;5.95;100.00
63808;BME280;49961;43.970;22.868;2023-02-02T03:18:13;101518.31;;;6.50;100.00
63808;BME280;49961;43.970;22.868;2023-02-02T03:19:14;101514.00;;;6.52;100.00
63808;BME280;49961;43.970;22.868;2023-02-02T03:20:15;101512.06;;;6.53;100.00
63808;BME280;49961;43.970;22.868;2023-02-02T03:21:15;101470.13;;;6.19;100.00
63808;BME280;49961;43.970;22.868;2023-02-02T03:22:16;101437.41;;;6.07;100.00
63808;BME280;49961;43.970;22.868;2023-02-02T03:23:16;101506.09;;;6.47;100.00
63808;BME280;49961;43.970;22.868;2023-02-02T03:24:17;101482.38;;;6.29;100.00
63808;BME280;49961;43.970;22.868;2023-02-02T03:25:17;101492.19;;;6.26;100.00
63808;BME280;49961;43.970;22.868;2023-02-02T03:26:18;101506.47;;;6.42;100.00
63808;BME280;49961;43.970;22.868;2023-02-02T03:27:19;101456.25;;;6.05;100.00
63808;BME280;49961;43.970;22.868;2023-02-02T03:28:20;101490.72;;;6.36;100.00
63808;BME280;49961;43.970;22.868;2023-02-02T03:29:22;101507.63;;;6.41;100.00
63808;BME280;49961;43.970;22.868;2023-02-02T03:30:22;101510.34;;;6.34;100.00
63808;BME280;49961;43.970;22.868;2023-02-02T03:31:25;101517.41;;;6.32;100.00
63808;BME280;49961;43.970;22.868;2023-02-02T03:32:26;101506.03;;;6.37;100.00
63808;BME280;49961;43.970;22.868;2023-02-02T03:33:27;101399.28;;;5.59;100.00
63808;BME280;49961;43.970;22.868;2023-02-02T03:34:27;101404.06;;;5.69;100.00
63808;BME280;49961;43.970;22.868;2023-02-02T03:35:28;101502.47;;;6.33;100.00
63808;BME280;49961;43.970;22.868;2023-02-02T03:36:28;101383.19;;;5.64;100.00
63808;BME280;49961;43.970;22.868;2023-02-02T03:37:29;101508.78;;;6.37;100.00
63808;BME280;49961;43.970;22.868;2023-02-02T03:38:29;101499.72;;;6.36;100.00
63808;BME280;49961;43.970;22.868;2023-02-02T03:39:30;101496.97;;;6.33;100.00
63808;BME280;49961;43.970;22.868;2023-02-02T03:40:30;101481.94;;;6.20;100.00
63808;BME280;49961;43.970;22.868;2023-02-02T03:41:30;101488.69;;;6.29;100.00
63808;BME280;49961;43.970;22.868;2023-02-02T03:42:31;101400.97;;;5.74;100.00
63808;BME280;49961;43.970;22.868;2023-02-02T03:43:31;101487.88;;;6.29;100.00
63808;BME280;49961;43.970;22.868;2023-02-02T03:44:32;101489.06;;;6.28;100.00
63808;BME280;49961;43.970;22.868;2023-02-02T03:45:32;101486.28;;;6.24;100.00
63808;BME280;49961;43.970;22.868;2023-02-02T03:46:36;101482.78;;;6.27;100.00
63808;BME280;49961;43.970;22.868;2023-02-02T03:47:36;101480.81;;;6.28;100.00
63808;BME280;49961;43.970;22.868;2023-02-02T03:48:37;101479.59;;;6.25;100.00
63808;BME280;49961;43.970;22.868;2023-02-02T03:49:38;101488.25;;;6.24;100.00
63808;BME280;49961;43.970;22.868;2023-02-02T03:50:38;101483.13;;;6.22;100.00
63808;BME280;49961;43.970;22.868;2023-02-02T03:51:39;101321.53;;;5.18;100.00
63808;BME280;49961;43.970;22.868;2023-02-02T03:52:39;101486.63;;;6.16;100.00
63808;BME280;49961;43.970;22.868;2023-02-02T03:53:40;101406.31;;;5.56;100.00
63808;BME280;49961;43.970;22.868;2023-02-02T03:54:43;101482.22;;;6.08;100.00
63808;BME280;49961;43.970;22.868;2023-02-02T03:55:43;101473.13;;;6.00;100.00
63808;BME280;49961;43.970;22.868;2023-02-02T03:56:44;101486.91;;;6.04;100.00
63808;BME280;49961;43.970;22.868;2023-02-02T03:57:44;101461.66;;;5.91;100.00
63808;BME280;49961;43.970;22.868;2023-02-02T03:58:45;101483.78;;;6.05;100.00
63808;BME280;49961;43.970;22.868;2023-02-02T03:59:46;101483.78;;;6.05;100.00
63808;BME280;49961;43.970;22.868;2023-02-02T04:00:47;101485.66;;;5.94;100.00
63808;BME280;49961;43.970;22.868;2023-02-02T04:01:47;101480.94;;;5.91;100.00
63808;BME280;49961;43.970;22.868;2023-02-02T04:02:48;101482.13;;;5.94;100.00
63808;BME280;49961;43.970;22.868;2023-02-02T04:03:49;101477.78;;;5.93;100.00
63808;BME280;49961;43.970;22.868;2023-02-02T04:04:49;101476.56;;;5.90;100.00
63808;BME280;49961;43.970;22.868;2023-02-02T04:05:50;101482.47;;;5.89;100.00
63808;BME280;49961;43.970;22.868;2023-02-02T04:06:50;101478.41;;;5.79;100.00
63808;BME280;49961;43.970;22.868;2023-02-02T04:07:50;101485.16;;;5.82;100.00
63808;BME280;49961;43.970;22.868;2023-02-02T04:08:51;101470.94;;;5.76;100.00
63808;BME280;49961;43.970;22.868;2023-02-02T04:09:52;101469.72;;;5.74;100.00
63808;BME280;49961;43.970;22.868;2023-02-02T04:10:52;101470.09;;;5.69;100.00
63808;BME280;49961;43.970;22.868;2023-02-02T04:11:53;101477.84;;;5.60;100.00
63808;BME280;49961;43.970;22.868;2023-02-02T04:12:53;101401.53;;;5.10;100.00
63808;BME280;49961;43.970;22.868;2023-02-02T04:13:54;101457.38;;;5.54;100.00
63808;BME280;49961;43.970;22.868;2023-02-02T04:14:54;101471.34;;;5.42;100.00
63808;BME280;49961;43.970;22.868;2023-02-02T04:15:56;101465.50;;;5.43;100.00
63808;BME280;49961;43.970;22.868;2023-02-02T04:16:57;101467.06;;;5.44;100.00
63808;BME280;49961;43.970;22.868;2023-02-02T04:17:57;101467.50;;;5.46;100.00
63808;BME280;49961;43.970;22.868;2023-02-02T04:18:58;101469.41;;;5.42;100.00
63808;BME280;49961;43.970;22.868;2023-02-02T04:19:58;101466.63;;;5.39;100.00
63808;BME280;49961;43.970;22.868;2023-02-02T04:21:00;101388.41;;;4.93;100.00
63808;BME280;49961;43.970;22.868;2023-02-02T04:22:00;101463.50;;;5.40;100.00
63808;BME280;49961;43.970;22.868;2023-02-02T04:23:01;101465.00;;;5.34;100.00
63808;BME280;49961;43.970;22.868;2023-02-02T04:24:01;101476.75;;;5.31;100.00
63808;BME280;49961;43.970;22.868;2023-02-02T04:25:02;101397.63;;;4.74;100.00
63808;BME280;49961;43.970;22.868;2023-02-02T04:26:03;101382.97;;;4.63;100.00
63808;BME280;49961;43.970;22.868;2023-02-02T04:27:03;101439.56;;;5.04;100.00
63808;BME280;49961;43.970;22.868;2023-02-02T04:28:04;101465.63;;;5.21;100.00
63808;BME280;49961;43.970;22.868;2023-02-02T04:29:04;101471.56;;;5.23;100.00
63808;BME280;49961;43.970;22.868;2023-02-02T04:30:05;101382.72;;;4.75;100.00
63808;BME280;49961;43.970;22.868;2023-02-02T04:31:06;101471.97;;;5.25;100.00
63808;BME280;49961;43.970;22.868;2023-02-02T04:32:06;101388.53;;;4.70;100.00
63808;BME280;49961;43.970;22.868;2023-02-02T04:33:07;101442.38;;;5.11;100.00
63808;BME280;49961;43.970;22.868;2023-02-02T04:34:07;101466.09;;;5.26;100.00
63808;BME280;49961;43.970;22.868;2023-02-02T04:35:08;101473.16;;;5.27;100.00
63808;BME280;49961;43.970;22.868;2023-02-02T04:36:09;101383.72;;;4.60;100.00
63808;BME280;49961;43.970;22.868;2023-02-02T04:37:10;101425.66;;;4.90;100.00
63808;BME280;49961;43.970;22.868;2023-02-02T04:38:11;101373.94;;;4.63;100.00
63808;BME280;49961;43.970;22.868;2023-02-02T04:39:12;101473.91;;;5.24;100.00
63808;BME280;49961;43.970;22.868;2023-02-02T04:40:13;101465.25;;;5.22;100.00
63808;BME280;49961;43.970;22.868;2023-02-02T04:41:13;101471.50;;;5.19;100.00
63808;BME280;49961;43.970;22.868;2023-02-02T04:42:14;101475.88;;;5.24;100.00
63808;BME280;49961;43.970;22.868;2023-02-02T04:43:15;101474.31;;;5.23;100.00
63808;BME280;49961;43.970;22.868;2023-02-02T04:44:15;101479.34;;;5.17;100.00
63808;BME280;49961;43.970;22.868;2023-02-02T04:45:16;101479.00;;;5.22;100.00
63808;BME280;49961;43.970;22.868;2023-02-02T04:46:16;101475.06;;;5.20;100.00
63808;BME280;49961;43.970;22.868;2023-02-02T04:47:17;101481.38;;;5.24;100.00
63808;BME280;49961;43.970;22.868;2023-02-02T04:48:17;101474.69;;;5.21;100.00
63808;BME280;49961;43.970;22.868;2023-02-02T04:49:18;101491.16;;;5.21;100.00
63808;BME280;49961;43.970;22.868;2023-02-02T04:50:18;101482.47;;;5.16;100.00
63808;BME280;49961;43.970;22.868;2023-02-02T04:51:18;101483.66;;;5.18;100.00
63808;BME280;49961;43.970;22.868;2023-02-02T04:52:19;101419.06;;;4.65;100.00
63808;BME280;49961;43.970;22.868;2023-02-02T04:53:19;101477.00;;;5.19;100.00
63808;BME280;49961;43.970;22.868;2023-02-02T04:54:20;101400.22;;;4.64;100.00
63808;BME280;49961;43.970;22.868;2023-02-02T04:55:21;101494.00;;;5.28;100.00
63808;BME280;49961;43.970;22.868;2023-02-02T04:56:22;101492.03;;;5.29;100.00
63808;BME280;49961;43.970;22.868;2023-02-02T04:57:22;101487.38;;;5.33;100.00
63808;BME280;49961;43.970;22.868;2023-02-02T04:58:22;101491.25;;;5.28;100.00
63808;BME280;49961;43.970;22.868;2023-02-02T04:59:23;101493.28;;;5.35;100.00
63808;BME280;49961;43.970;22.868;2023-02-02T05:00:24;101497.59;;;5.36;100.00
63808;BME280;49961;43.970;22.868;2023-02-02T05:01:25;101491.75;;;5.37;100.00
63808;BME280;49961;43.970;22.868;2023-02-02T05:02:25;101496.06;;;5.38;100.00
63808;BME280;49961;43.970;22.868;2023-02-02T05:03:26;101502.38;;;5.39;100.00
63808;BME280;49961;43.970;22.868;2023-02-02T05:04:27;101472.28;;;5.16;100.00
63808;BME280;49961;43.970;22.868;2023-02-02T05:05:27;101512.13;;;5.33;100.00
63808;BME280;49961;43.970;22.868;2023-02-02T05:06:28;101496.88;;;5.39;100.00
63808;BME280;49961;43.970;22.868;2023-02-02T05:07:28;101500.44;;;5.43;100.00
63808;BME280;49961;43.970;22.868;2023-02-02T05:08:29;101432.47;;;5.03;100.00
63808;BME280;49961;43.970;22.868;2023-02-02T05:09:30;101504.09;;;5.54;100.00
63808;BME280;49961;43.970;22.868;2023-02-02T05:10:30;101495.44;;;5.55;100.00
63808;BME280;49961;43.970;22.868;2023-02-02T05:11:30;101504.84;;;5.51;100.00
63808;BME280;49961;43.970;22.868;2023-02-02T05:12:31;101504.09;;;5.54;100.00
63808;BME280;49961;43.970;22.868;2023-02-02T05:13:31;101510.81;;;5.56;100.00
63808;BME280;49961;43.970;22.868;2023-02-02T05:14:32;101506.94;;;5.64;100.00
63808;BME280;49961;43.970;22.868;2023-02-02T05:15:32;101515.22;;;5.68;100.00
63808;BME280;49961;43.970;22.868;2023-02-02T05:16:33;101480.38;;;5.39;100.00
63808;BME280;49961;43.970;22.868;2023-02-02T05:17:33;101512.81;;;5.63;100.00
63808;BME280;49961;43.970;22.868;2023-02-02T05:18:33;101507.72;;;5.61;100.00
63808;BME280;49961;43.970;22.868;2023-02-02T05:19:34;101508.53;;;5.65;100.00
63808;BME280;49961;43.970;22.868;2023-02-02T05:20:34;101514.47;;;5.71;100.00
63808;BME280;49961;43.970;22.868;2023-02-02T05:21:35;101483.63;;;5.48;100.00
63808;BME280;49961;43.970;22.868;2023-02-02T05:22:35;101507.03;;;5.71;100.00
63808;BME280;49961;43.970;22.868;2023-02-02T05:23:35;101380.03;;;4.82;100.00
63808;BME280;49961;43.970;22.868;2023-02-02T05:24:36;101511.34;;;5.69;100.00
63808;BME280;49961;43.970;22.868;2023-02-02T05:25:36;101436.22;;;5.21;100.00
63808;BME280;49961;43.970;22.868;2023-02-02T05:26:37;101504.66;;;5.70;100.00
63808;BME280;49961;43.970;22.868;2023-02-02T05:27:37;101444.97;;;5.34;100.00
63808;BME280;49961;43.970;22.868;2023-02-02T05:28:38;101510.59;;;5.75;100.00
63808;BME280;49961;43.970;22.868;2023-02-02T05:29:38;101333.97;;;4.65;100.00
63808;BME280;49961;43.970;22.868;2023-02-02T05:30:39;101496.72;;;5.61;100.00
63808;BME280;49961;43.970;22.868;2023-02-02T05:31:39;101509.81;;;5.75;100.00
63808;BME280;49961;43.970;22.868;2023-02-02T05:32:40;101464.78;;;5.50;100.00
63808;BME280;49961;43.970;22.868;2023-02-02T05:33:41;101497.91;;;5.64;100.00
63808;BME280;49961;43.970;22.868;2023-02-02T05:34:41;101505.91;;;5.79;100.00
63808;BME280;49961;43.970;22.868;2023-02-02T05:35:44;101522.88;;;5.81;100.00
63808;BME280;49961;43.970;22.868;2023-02-02T05:36:44;101516.56;;;5.81;100.00
63808;BME280;49961;43.970;22.868;2023-02-02T05:37:45;101453.75;;;5.46;100.00
63808;BME280;49961;43.970;22.868;2023-02-02T05:38:45;101504.69;;;5.73;100.00
63808;BME280;49961;43.970;22.868;2023-02-02T05:39:45;101311.84;;;4.51;100.00
63808;BME280;49961;43.970;22.868;2023-02-02T05:40:48;101517.75;;;5.80;100.00
63808;BME280;49961;43.970;22.868;2023-02-02T05:41:48;101513.41;;;5.79;100.00
63808;BME280;49961;43.970;22.868;2023-02-02T05:42:49;101474.66;;;5.58;100.00
63808;BME280;49961;43.970;22.868;2023-02-02T05:43:49;101507.53;;;5.80;100.00
63808;BME280;49961;43.970;22.868;2023-02-02T05:44:49;101497.66;;;5.79;100.00
63808;BME280;49961;43.970;22.868;2023-02-02T05:45:50;101494.44;;;5.70;100.00
63808;BME280;49961;43.970;22.868;2023-02-02T05:46:50;101449.03;;;5.47;100.00
63808;BME280;49961;43.970;22.868;2023-02-02T05:47:52;101497.34;;;5.84;100.00
63808;BME280;49961;43.970;22.868;2023-02-02T05:48:53;101501.28;;;5.83;100.00
63808;BME280;49961;43.970;22.868;2023-02-02T05:49:54;101498.19;;;5.88;100.00